createdAt,value
2018-07-22T00:00:11.485Z,16.80
2018-07-22T00:02:40.439Z,16.90
2018-07-22T00:05:09.350Z,16.80
2018-07-22T00:07:38.239Z,16.80
2018-07-22T00:10:11.072Z,16.80
2018-07-22T00:12:39.748Z,16.90
2018-07-22T00:15:08.322Z,16.90
2018-07-22T00:17:36.827Z,16.80
2018-07-22T00:20:05.358Z,16.80
2018-07-22T00:22:33.867Z,16.80
2018-07-22T00:25:02.354Z,16.80
2018-07-22T00:27:30.787Z,16.80
2018-07-22T00:29:59.334Z,16.80
2018-07-22T00:32:27.952Z,16.80
2018-07-22T00:34:56.493Z,16.80
2018-07-22T00:37:25.082Z,16.80
2018-07-22T00:39:53.565Z,16.70
2018-07-22T00:42:22.164Z,16.70
2018-07-22T00:44:50.564Z,16.70
2018-07-22T00:47:19.002Z,16.70
2018-07-22T00:49:47.568Z,16.70
2018-07-22T00:52:16.191Z,16.60
2018-07-22T00:54:44.841Z,16.70
2018-07-22T00:57:13.348Z,16.60
2018-07-22T00:59:42.008Z,16.60
2018-07-22T01:02:10.436Z,16.60
2018-07-22T01:04:38.842Z,16.60
2018-07-22T01:07:07.301Z,16.60
2018-07-22T01:09:35.943Z,16.60
2018-07-22T01:12:04.761Z,16.50
2018-07-22T01:14:33.566Z,16.50
2018-07-22T01:17:02.813Z,16.60
2018-07-22T01:19:31.386Z,16.50
2018-07-22T01:21:59.863Z,16.50
2018-07-22T01:24:28.295Z,16.60
2018-07-22T01:26:56.859Z,16.60
2018-07-22T01:29:26.001Z,16.50
2018-07-22T01:31:54.410Z,16.50
2018-07-22T01:34:22.979Z,16.50
2018-07-22T01:36:51.706Z,16.50
2018-07-22T01:39:20.231Z,16.50
2018-07-22T01:41:48.887Z,16.50
2018-07-22T01:44:17.414Z,16.60
2018-07-22T01:46:45.886Z,16.50
2018-07-22T01:49:14.589Z,16.50
2018-07-22T01:51:42.993Z,16.60
2018-07-22T01:54:11.521Z,16.50
2018-07-22T01:56:39.956Z,16.60
2018-07-22T01:59:08.457Z,16.60
2018-07-22T02:01:37.012Z,16.60
2018-07-22T02:04:05.605Z,16.50
2018-07-22T02:06:34.315Z,16.50
2018-07-22T02:09:03.079Z,16.50
2018-07-22T02:11:31.836Z,16.50
2018-07-22T02:14:00.370Z,16.50
2018-07-22T02:16:28.792Z,16.50
2018-07-22T02:18:57.350Z,16.50
2018-07-22T02:21:25.844Z,16.50
2018-07-22T02:23:54.332Z,16.50
2018-07-22T02:26:22.956Z,16.50
2018-07-22T02:28:51.374Z,16.50
2018-07-22T02:31:19.797Z,16.50
2018-07-22T02:33:48.350Z,16.50
2018-07-22T02:36:17.020Z,16.50
2018-07-22T02:38:45.422Z,16.50
2018-07-22T02:41:15.571Z,16.50
2018-07-22T02:46:12.460Z,16.50
2018-07-22T02:48:40.912Z,16.50
2018-07-22T02:51:09.336Z,16.50
2018-07-22T02:53:37.984Z,16.50
2018-07-22T02:56:06.498Z,16.60
2018-07-22T02:58:35.066Z,16.50
2018-07-22T03:01:03.700Z,16.50
2018-07-22T03:03:32.285Z,16.50
2018-07-22T03:06:00.696Z,16.50
2018-07-22T03:08:29.199Z,16.60
2018-07-22T03:10:57.714Z,16.60
2018-07-22T03:13:26.179Z,16.60
2018-07-22T03:15:54.730Z,16.50
2018-07-22T03:18:23.806Z,16.50
2018-07-22T03:20:52.398Z,16.60
2018-07-22T03:23:20.906Z,16.70
2018-07-22T03:25:49.454Z,16.70
2018-07-22T03:30:46.521Z,16.70
2018-07-22T03:33:15.062Z,16.70
2018-07-22T03:35:43.468Z,16.70
2018-07-22T03:38:12.033Z,16.70
2018-07-22T03:40:40.586Z,16.70
2018-07-22T03:43:09.034Z,16.70
2018-07-22T03:45:38.061Z,16.60
2018-07-22T03:48:06.693Z,16.60
2018-07-22T03:50:35.118Z,16.50
2018-07-22T03:53:03.639Z,16.50
2018-07-22T03:55:32.103Z,16.50
2018-07-22T03:58:00.508Z,16.50
2018-07-22T04:00:28.967Z,16.50
2018-07-22T04:02:57.447Z,16.50
2018-07-22T04:05:26.000Z,16.40
2018-07-22T04:07:54.439Z,16.40
2018-07-22T04:10:23.867Z,16.40
2018-07-22T04:12:53.070Z,16.40
2018-07-22T04:15:21.640Z,16.40
2018-07-22T04:17:50.104Z,16.30
2018-07-22T04:20:18.612Z,16.30
2018-07-22T04:22:47.175Z,16.30
2018-07-22T04:25:16.324Z,16.40
2018-07-22T04:27:44.807Z,16.40
2018-07-22T04:32:41.629Z,16.40
2018-07-22T04:35:10.287Z,16.40
2018-07-22T04:37:39.079Z,16.30
2018-07-22T04:40:08.283Z,16.30
2018-07-22T04:42:36.864Z,16.30
2018-07-22T04:45:06.058Z,16.30
2018-07-22T04:47:34.726Z,16.40
2018-07-22T04:50:05.060Z,16.30
2018-07-22T04:52:33.604Z,16.40
2018-07-22T04:55:02.250Z,16.40
2018-07-22T04:57:30.771Z,16.40
2018-07-22T05:00:02.432Z,16.40
2018-07-22T05:02:31.127Z,16.50
2018-07-22T05:04:59.834Z,16.50
2018-07-22T05:07:28.271Z,16.50
2018-07-22T05:09:56.691Z,16.50
2018-07-22T05:12:25.163Z,16.70
2018-07-22T05:14:53.701Z,16.70
2018-07-22T05:17:22.243Z,16.80
2018-07-22T05:19:50.811Z,16.80
2018-07-22T05:22:19.316Z,16.80
2018-07-22T05:24:48.568Z,16.90
2018-07-22T05:27:17.864Z,16.90
2018-07-22T05:29:46.355Z,17.00
2018-07-22T05:32:15.066Z,17.10
2018-07-22T05:34:43.601Z,17.00
2018-07-22T05:37:12.061Z,17.10
2018-07-22T05:39:40.747Z,17.10
2018-07-22T05:42:09.295Z,17.10
2018-07-22T05:44:37.811Z,17.20
2018-07-22T05:47:06.580Z,17.20
2018-07-22T05:49:35.057Z,17.40
2018-07-22T05:52:04.353Z,17.50
2018-07-22T05:54:32.877Z,17.50
2018-07-22T05:57:01.467Z,17.40
2018-07-22T05:59:29.947Z,17.50
2018-07-22T06:01:59.314Z,17.60
2018-07-22T06:04:28.049Z,17.40
2018-07-22T06:06:57.236Z,17.40
2018-07-22T06:09:25.897Z,17.40
2018-07-22T06:11:54.579Z,17.40
2018-07-22T06:14:23.079Z,17.50
2018-07-22T06:16:52.602Z,17.70
2018-07-22T06:19:21.187Z,17.80
2018-07-22T06:21:49.813Z,17.80
2018-07-22T06:24:18.363Z,17.80
2018-07-22T06:26:47.471Z,17.90
2018-07-22T06:29:15.984Z,17.80
2018-07-22T06:31:44.636Z,17.80
2018-07-22T06:34:13.256Z,18.00
2018-07-22T06:39:12.358Z,18.10
2018-07-22T06:41:41.542Z,18.10
2018-07-22T06:44:10.316Z,18.00
2018-07-22T06:46:38.777Z,18.10
2018-07-22T06:49:07.666Z,18.20
2018-07-22T06:51:36.517Z,18.10
2018-07-22T06:54:05.233Z,18.10
2018-07-22T06:56:34.031Z,18.20
2018-07-22T06:59:04.123Z,18.30
2018-07-22T07:01:32.936Z,18.40
2018-07-22T07:04:01.447Z,18.40
2018-07-22T07:06:30.012Z,18.50
2018-07-22T07:08:58.565Z,18.50
2018-07-22T07:11:27.027Z,18.70
2018-07-22T07:13:55.634Z,18.70
2018-07-22T07:16:24.904Z,18.70
2018-07-22T07:18:53.699Z,18.80
2018-07-22T07:21:22.674Z,18.90
2018-07-22T07:23:51.941Z,19.10
2018-07-22T07:26:20.566Z,19.30
2018-07-22T07:28:49.093Z,19.50
2018-07-22T07:31:17.788Z,19.50
2018-07-22T07:33:46.989Z,19.70
2018-07-22T07:36:15.595Z,19.90
2018-07-22T07:38:44.130Z,20.10
2018-07-22T07:41:12.738Z,20.10
2018-07-22T07:43:41.215Z,20.20
2018-07-22T07:46:09.917Z,20.30
2018-07-22T07:51:06.768Z,20.40
2018-07-22T07:53:35.531Z,20.60
2018-07-22T07:56:04.313Z,20.50
2018-07-22T07:58:32.783Z,20.60
2018-07-22T08:01:01.416Z,20.80
2018-07-22T08:03:29.959Z,20.90
2018-07-22T08:05:58.410Z,21.00
2018-07-22T08:08:27.095Z,21.10
2018-07-22T08:10:55.714Z,21.50
2018-07-22T08:13:24.804Z,21.50
2018-07-22T08:15:53.765Z,21.70
2018-07-22T08:18:22.311Z,22.00
2018-07-22T08:20:51.015Z,22.40
2018-07-22T08:23:19.556Z,22.40
2018-07-22T08:25:48.112Z,22.50
2018-07-22T08:28:26.576Z,22.70
2018-07-22T08:30:55.039Z,22.80
2018-07-22T08:33:23.892Z,23.10
2018-07-22T08:35:52.557Z,23.10
2018-07-22T08:38:20.973Z,23.10
2018-07-22T08:40:49.551Z,23.10
2018-07-22T08:43:18.304Z,23.30
2018-07-22T08:45:47.103Z,22.70
2018-07-22T08:48:15.831Z,22.70
2018-07-22T08:50:44.392Z,22.80
2018-07-22T08:53:12.983Z,23.00
2018-07-22T08:58:09.796Z,23.50
2018-07-22T09:00:38.228Z,23.50
2018-07-22T09:03:06.805Z,23.50
2018-07-22T09:05:35.395Z,23.50
2018-07-22T09:08:04.229Z,23.50
2018-07-22T09:10:32.881Z,23.40
2018-07-22T09:13:01.524Z,23.40
2018-07-22T09:15:30.018Z,23.20
2018-07-22T09:17:58.729Z,23.30
2018-07-22T09:20:27.137Z,23.20
2018-07-22T09:22:55.860Z,23.20
2018-07-22T09:25:24.422Z,23.20
2018-07-22T09:27:54.550Z,23.10
2018-07-22T09:32:52.004Z,23.00
2018-07-22T09:35:20.639Z,23.10
2018-07-22T09:37:49.256Z,23.20
2018-07-22T09:40:17.731Z,23.10
2018-07-22T09:42:46.244Z,23.00
2018-07-22T09:45:14.852Z,22.80
2018-07-22T09:47:43.697Z,22.70
2018-07-22T09:50:12.394Z,23.10
2018-07-22T09:52:41.023Z,23.30
2018-07-22T09:55:09.675Z,23.40
2018-07-22T09:57:38.413Z,23.40
2018-07-22T10:00:07.588Z,23.60
2018-07-22T10:05:05.025Z,23.80
2018-07-22T10:07:33.625Z,23.80
2018-07-22T10:10:02.096Z,23.90
2018-07-22T10:12:30.596Z,24.10
2018-07-22T10:14:59.116Z,24.10
2018-07-22T10:17:27.812Z,24.20
2018-07-22T10:19:56.502Z,24.20
2018-07-22T10:22:25.118Z,24.10
2018-07-22T10:24:53.804Z,24.00
2018-07-22T10:27:22.308Z,24.20
2018-07-22T10:29:50.841Z,24.00
2018-07-22T10:32:19.424Z,24.10
2018-07-22T10:34:47.917Z,24.30
2018-07-22T10:37:16.512Z,24.40
2018-07-22T10:39:44.959Z,24.40
2018-07-22T10:42:13.460Z,24.40
2018-07-22T10:44:41.963Z,24.40
2018-07-22T10:47:11.376Z,24.40
2018-07-22T10:49:39.959Z,24.60
2018-07-22T10:52:08.675Z,24.70
2018-07-22T10:54:37.275Z,24.80
2018-07-22T10:57:05.732Z,24.90
2018-07-22T10:59:34.261Z,25.00
2018-07-22T11:04:31.387Z,24.70
2018-07-22T11:06:59.908Z,24.70
2018-07-22T11:09:28.605Z,24.40
2018-07-22T11:11:57.175Z,24.60
2018-07-22T11:14:25.912Z,24.30
2018-07-22T11:19:22.997Z,24.60
2018-07-22T11:21:51.605Z,24.80
2018-07-22T11:24:20.167Z,25.00
2018-07-22T11:26:48.709Z,25.40
2018-07-22T11:29:17.331Z,25.70
2018-07-22T11:31:46.108Z,26.10
2018-07-22T11:34:14.886Z,25.30
2018-07-22T11:36:43.519Z,25.50
2018-07-22T11:39:12.706Z,25.20
2018-07-22T11:41:41.790Z,25.50
2018-07-22T11:46:39.747Z,25.50
2018-07-22T11:49:10.799Z,24.90
2018-07-22T11:51:39.447Z,24.60
2018-07-22T11:54:08.350Z,24.40
2018-07-22T11:56:36.910Z,24.30
2018-07-22T11:59:05.404Z,24.40
2018-07-22T12:01:34.001Z,24.90
2018-07-22T12:04:02.485Z,24.90
2018-07-22T12:06:31.231Z,25.00
2018-07-22T12:08:59.662Z,24.90
2018-07-22T12:11:28.918Z,25.00
2018-07-22T12:13:57.690Z,25.10
2018-07-22T12:16:26.303Z,25.70
2018-07-22T12:18:54.879Z,25.80
2018-07-22T12:21:23.486Z,25.60
2018-07-22T12:23:52.023Z,25.70
2018-07-22T12:26:21.882Z,25.50
2018-07-22T12:28:50.516Z,25.50
2018-07-22T12:31:19.341Z,25.40
2018-07-22T12:33:47.784Z,25.40
2018-07-22T12:36:16.207Z,25.30
2018-07-22T12:38:44.736Z,25.00
2018-07-22T12:41:15.270Z,25.00
2018-07-22T12:43:43.860Z,25.30
2018-07-22T12:46:12.510Z,25.40
2018-07-22T12:48:41.488Z,25.30
2018-07-22T12:51:10.010Z,25.50
2018-07-22T12:53:38.462Z,25.70
2018-07-22T12:56:07.006Z,26.10
2018-07-22T12:58:35.698Z,26.10
2018-07-22T13:01:04.240Z,26.00
2018-07-22T13:03:32.906Z,25.80
2018-07-22T13:06:01.367Z,25.20
2018-07-22T13:08:29.857Z,24.90
2018-07-22T13:10:58.345Z,24.70
2018-07-22T13:13:26.862Z,24.40
2018-07-22T13:15:55.420Z,24.50
2018-07-22T13:18:23.984Z,24.60
2018-07-22T13:20:52.465Z,24.70
2018-07-22T13:23:21.342Z,24.90
2018-07-22T13:25:50.074Z,25.30
2018-07-22T13:28:18.629Z,25.20
2018-07-22T13:30:47.147Z,25.30
2018-07-22T13:33:15.738Z,25.80
2018-07-22T13:35:44.363Z,26.30
2018-07-22T13:38:12.876Z,26.20
2018-07-22T13:40:41.483Z,26.30
2018-07-22T13:43:10.041Z,26.30
2018-07-22T13:45:38.674Z,26.40
2018-07-22T13:48:07.200Z,26.40
2018-07-22T13:50:36.636Z,26.70
2018-07-22T13:53:05.439Z,26.70
2018-07-22T13:55:34.262Z,26.40
2018-07-22T13:58:02.787Z,26.40
2018-07-22T14:00:31.299Z,26.50
2018-07-22T14:02:59.822Z,26.60
2018-07-22T14:05:29.037Z,26.40
2018-07-22T14:07:57.637Z,26.00
2018-07-22T14:12:55.195Z,26.40
2018-07-22T14:15:23.864Z,26.20
2018-07-22T14:17:52.398Z,26.60
2018-07-22T14:22:49.003Z,27.50
2018-07-22T14:25:17.517Z,27.90
2018-07-22T14:27:46.021Z,27.50
2018-07-22T14:30:14.509Z,27.30
2018-07-22T14:32:43.043Z,26.90
2018-07-22T14:35:11.873Z,26.30
2018-07-22T14:37:40.528Z,25.80
2018-07-22T14:42:37.188Z,25.60
2018-07-22T14:45:06.455Z,25.50
2018-07-22T14:47:34.940Z,25.10
2018-07-22T14:50:03.626Z,24.90
2018-07-22T14:52:32.188Z,24.60
2018-07-22T14:55:00.890Z,24.50
2018-07-22T14:57:29.370Z,24.50
2018-07-22T14:59:57.892Z,24.60
2018-07-22T15:02:26.652Z,25.60
2018-07-22T15:04:55.189Z,25.60
2018-07-22T15:07:23.782Z,25.50
2018-07-22T15:09:52.794Z,25.40
2018-07-22T15:12:21.363Z,25.10
2018-07-22T15:14:49.967Z,24.60
2018-07-22T15:17:18.749Z,24.40
2018-07-22T15:19:47.246Z,24.40
2018-07-22T15:22:15.826Z,24.50
2018-07-22T15:24:44.551Z,24.30
2018-07-22T15:27:13.158Z,23.80
2018-07-22T15:29:41.912Z,23.70
2018-07-22T15:32:12.143Z,23.60
2018-07-22T15:34:41.080Z,23.50
2018-07-22T15:37:09.832Z,23.30
2018-07-22T15:39:38.262Z,23.00
2018-07-22T15:42:06.803Z,22.80
2018-07-22T15:44:35.560Z,22.80
2018-07-22T15:47:04.176Z,22.50
2018-07-22T15:49:32.751Z,22.10
2018-07-22T15:52:01.384Z,22.00
2018-07-22T15:54:30.138Z,21.60
2018-07-22T15:56:58.762Z,21.40
2018-07-22T15:59:27.270Z,21.30
2018-07-22T16:01:55.820Z,21.00
2018-07-22T16:04:24.338Z,20.70
2018-07-22T16:06:54.490Z,20.50
2018-07-22T16:09:23.098Z,20.10
2018-07-22T16:11:51.594Z,19.70
2018-07-22T16:14:20.081Z,19.70
2018-07-22T16:16:48.644Z,19.30
2018-07-22T16:19:17.180Z,19.20
2018-07-22T16:21:45.831Z,19.30
2018-07-22T16:24:14.533Z,19.10
2018-07-22T16:26:43.106Z,19.00
2018-07-22T16:29:11.727Z,18.90
2018-07-22T16:31:40.324Z,19.00
2018-07-22T16:34:09.004Z,19.00
2018-07-22T16:36:37.599Z,19.10
2018-07-22T16:39:08.293Z,19.30
2018-07-22T16:41:36.777Z,19.40
2018-07-22T16:46:34.164Z,19.70
2018-07-22T16:49:02.709Z,19.70
2018-07-22T16:51:31.222Z,19.60
2018-07-22T16:53:59.833Z,19.60
2018-07-22T16:56:28.702Z,19.60
2018-07-22T16:58:57.300Z,19.60
2018-07-22T17:01:26.018Z,19.50
2018-07-22T17:03:54.605Z,19.30
2018-07-22T17:06:23.143Z,19.00
2018-07-22T17:08:51.712Z,19.00
2018-07-22T17:11:20.270Z,19.00
2018-07-22T17:13:48.923Z,19.00
2018-07-22T17:16:17.738Z,19.00
2018-07-22T17:18:46.507Z,18.90
2018-07-22T17:21:15.115Z,18.80
2018-07-22T17:26:12.169Z,18.90
2018-07-22T17:28:40.955Z,18.90
2018-07-22T17:31:10.061Z,18.80
2018-07-22T17:33:38.811Z,18.80
2018-07-22T17:36:07.524Z,18.80
2018-07-22T17:38:36.000Z,18.70
2018-07-22T17:41:04.714Z,18.70
2018-07-22T17:43:33.356Z,18.60
2018-07-22T17:46:01.947Z,18.60
2018-07-22T17:48:31.036Z,18.70
2018-07-22T17:50:59.680Z,18.70
2018-07-22T17:53:28.415Z,18.60
2018-07-22T17:55:57.111Z,18.40
2018-07-22T17:58:26.121Z,18.30
2018-07-22T18:00:54.677Z,18.20
2018-07-22T18:03:30.840Z,18.10
2018-07-22T18:06:00.128Z,18.00
2018-07-22T18:08:28.798Z,18.00
2018-07-22T18:10:57.495Z,18.10
2018-07-22T18:13:26.170Z,18.00
2018-07-22T18:15:54.975Z,17.90
2018-07-22T18:18:23.735Z,17.90
2018-07-22T18:20:52.630Z,17.80
2018-07-22T18:23:21.408Z,17.80
2018-07-22T18:25:50.272Z,17.70
2018-07-22T18:28:19.012Z,17.80
2018-07-22T18:30:47.811Z,17.70
2018-07-22T18:33:16.440Z,17.70
2018-07-22T18:35:45.366Z,17.80
2018-07-22T18:40:42.151Z,17.90
2018-07-22T18:43:11.170Z,17.80
2018-07-22T18:45:40.088Z,17.90
2018-07-22T18:48:08.892Z,17.80
2018-07-22T18:50:38.204Z,17.80
2018-07-22T18:53:07.539Z,17.80
2018-07-22T18:55:36.611Z,17.80
2018-07-22T18:58:05.632Z,17.80
2018-07-22T19:00:34.697Z,17.70
2018-07-22T19:03:03.908Z,17.70
2018-07-22T19:05:33.121Z,17.70
2018-07-22T19:08:02.217Z,17.80
2018-07-22T19:10:31.161Z,18.00
2018-07-22T19:13:00.325Z,17.90
2018-07-22T19:15:29.482Z,17.80
2018-07-22T19:17:58.839Z,17.70
2018-07-22T19:20:28.088Z,17.70
2018-07-22T19:22:57.294Z,17.70
2018-07-22T19:25:26.581Z,17.70
2018-07-22T19:27:57.589Z,17.50
2018-07-22T19:30:26.727Z,17.40
2018-07-22T19:32:56.102Z,17.40
2018-07-22T19:35:25.217Z,17.40
2018-07-22T19:37:54.160Z,17.30
2018-07-22T19:40:23.799Z,17.20
2018-07-22T19:45:23.287Z,17.10
2018-07-22T19:47:52.339Z,17.00
2018-07-22T19:52:50.294Z,16.80
2018-07-22T19:55:19.398Z,16.70
2018-07-22T19:57:48.508Z,16.70
2018-07-22T20:00:17.601Z,16.60
2018-07-22T20:02:46.571Z,16.60
2018-07-22T20:05:15.666Z,16.80
2018-07-22T20:07:44.760Z,16.70
2018-07-22T20:10:13.759Z,16.70
2018-07-22T20:12:43.509Z,17.00
2018-07-22T20:15:12.482Z,16.90
2018-07-22T20:17:41.441Z,16.90
2018-07-22T20:20:12.491Z,16.80
2018-07-22T20:22:42.790Z,16.70
2018-07-22T20:25:11.828Z,16.70
2018-07-22T20:27:40.444Z,16.60
2018-07-22T20:30:09.008Z,16.60
2018-07-22T20:32:37.691Z,16.60
2018-07-22T20:35:06.643Z,16.60
2018-07-22T20:37:35.633Z,16.60
2018-07-22T20:40:05.236Z,16.60
2018-07-22T20:42:33.976Z,16.60
2018-07-22T20:45:02.715Z,16.50
2018-07-22T20:47:31.221Z,16.60
2018-07-22T20:49:59.875Z,16.70
2018-07-22T20:52:28.536Z,16.70
2018-07-22T20:54:57.053Z,16.70
2018-07-22T20:57:25.638Z,16.60
2018-07-22T20:59:54.683Z,16.70
2018-07-22T21:02:23.228Z,16.80
2018-07-22T21:04:51.895Z,16.70
2018-07-22T21:07:20.495Z,16.70
2018-07-22T21:09:49.104Z,17.00
2018-07-22T21:12:55.146Z,17.10
2018-07-22T21:15:23.819Z,17.20
2018-07-22T21:17:53.032Z,17.20
2018-07-22T21:20:22.212Z,17.20
2018-07-22T21:22:50.806Z,17.00
2018-07-22T21:25:19.879Z,16.80
2018-07-22T21:27:48.419Z,16.90
2018-07-22T21:30:16.997Z,16.80
2018-07-22T21:32:45.471Z,16.80
2018-07-22T21:35:14.219Z,16.70
2018-07-22T21:37:42.784Z,16.60
2018-07-22T21:40:11.341Z,16.50
2018-07-22T21:42:39.835Z,16.50
2018-07-22T21:45:08.885Z,16.50
2018-07-22T21:47:37.775Z,16.60
2018-07-22T21:52:34.973Z,16.60
2018-07-22T21:55:03.828Z,16.60
2018-07-22T21:57:32.292Z,16.50
2018-07-22T22:00:00.723Z,16.50
2018-07-22T22:02:33.318Z,16.50
2018-07-22T22:05:02.946Z,16.40
2018-07-22T22:07:32.074Z,16.50
2018-07-22T22:10:00.973Z,16.50
2018-07-22T22:12:29.499Z,16.40
2018-07-22T22:14:58.031Z,16.30
2018-07-22T22:17:26.569Z,16.30
2018-07-22T22:19:56.759Z,16.40
2018-07-22T22:22:25.200Z,16.40
2018-07-22T22:24:53.837Z,16.40
2018-07-22T22:27:22.535Z,16.40
2018-07-22T22:29:51.142Z,16.40
2018-07-22T22:32:19.517Z,16.40
2018-07-22T22:34:48.042Z,16.40
2018-07-22T22:37:16.604Z,16.50
2018-07-22T22:39:45.062Z,16.40
2018-07-22T22:42:13.661Z,16.40
2018-07-22T22:44:42.073Z,16.40
2018-07-22T22:47:10.647Z,16.40
2018-07-22T22:49:39.200Z,16.30
2018-07-22T22:52:07.706Z,16.30
2018-07-22T22:54:36.998Z,16.30
2018-07-22T22:57:07.586Z,16.30
2018-07-22T22:59:36.125Z,16.30
2018-07-22T23:02:06.125Z,16.30
2018-07-22T23:04:34.571Z,16.30
2018-07-22T23:07:03.078Z,16.30
2018-07-22T23:09:31.604Z,16.30
2018-07-22T23:12:00.176Z,16.30
2018-07-22T23:14:28.582Z,16.30
2018-07-22T23:19:25.211Z,16.40
2018-07-22T23:21:53.721Z,16.50
2018-07-22T23:24:22.583Z,16.50
2018-07-22T23:26:51.027Z,16.50
2018-07-22T23:29:19.585Z,16.50
2018-07-22T23:31:48.072Z,16.60
2018-07-22T23:34:16.506Z,16.70
2018-07-22T23:36:45.117Z,16.60
2018-07-22T23:39:13.735Z,16.50
2018-07-22T23:41:42.216Z,16.40
2018-07-22T23:44:10.815Z,16.30
2018-07-22T23:46:39.223Z,16.20
2018-07-22T23:49:07.705Z,16.10
2018-07-22T23:51:36.220Z,16.10
2018-07-22T23:54:04.747Z,16.10
2018-07-22T23:56:33.130Z,16.00
2018-07-22T23:59:01.627Z,16.00
